Ana Sayfa
METAR-TAF:

METAR-TAF

Havaalanları :

McMinnville, Oregon, Amerika Birleşik Devletleri

Enlem: 45-11-46N, Boylam: 123-07-56W, yükseklik: 48 m

Güncel hava durumu gözlemi

Rapor saat 22:53 UTC de 28 dakika önce yapıldı.
Rüzgar değişken yönden 5 kt
Sıcaklık 19°C
Nem 49%
Basınç 1006 hPa
Görüş mesafesi: 16.1 km
Açık gökyüzü

METAR: KMMV 212253Z AUTO VRB05KT 10SM CLR 19/08 A2972 RMK AO2 SLP064 T01890078

Saat: 16:21 (23:21 UTC)


TAF: eksik

4.000'den fazla havaalanı için hava durumu gözlemleri ve tahminleri (METAR ve TAF raporları).

Kullanılabilir istasyonlar harita üzerinde sarı ve kırmızı noktalarla gösterilir.

İstasyonun adını görmek için fareyi noktanın üzerinde gezdirin.

Sonrasında hava gözlem ve tahminlerini görmek için tıklayın.

Haritayı değiştirmek için: yaklaştırmak için siyah artı işaretli yeşil düğmeye ve uzaklaştırmak için de eksi işaretli düğmeye hızla tıklayın; bitişik haritalar için yeşil okları kullanın.


METAR-TAF: